createdAt,value
2022-10-06T00:00:56.190Z,101093.16
2022-10-06T00:03:23.985Z,101094.09
2022-10-06T00:05:52.538Z,101087.94
2022-10-06T00:08:20.592Z,101083.50
2022-10-06T00:10:48.696Z,101086.25
2022-10-06T00:13:16.511Z,101084.50
2022-10-06T00:15:44.425Z,101074.69
2022-10-06T00:18:13.612Z,101086.31
2022-10-06T00:20:43.393Z,101086.38
2022-10-06T00:23:11.783Z,101094.41
2022-10-06T00:25:39.647Z,101097.94
2022-10-06T00:28:07.745Z,101105.94
2022-10-06T00:30:35.611Z,101106.84
2022-10-06T00:33:04.665Z,101114.97
2022-10-06T00:35:35.390Z,101119.41
2022-10-06T00:38:03.378Z,101123.88
2022-10-06T00:40:31.793Z,101129.25
2022-10-06T00:43:01.369Z,101121.25
2022-10-06T00:45:35.094Z,101123.94
2022-10-06T00:48:06.416Z,101117.72
2022-10-06T00:50:36.718Z,101122.22
2022-10-06T00:53:06.236Z,101110.59
2022-10-06T00:55:34.011Z,101114.22
2022-10-06T00:58:03.158Z,101127.59
2022-10-06T01:00:31.199Z,101132.09
2022-10-06T01:03:06.907Z,101128.56
2022-10-06T01:05:42.008Z,101140.19
2022-10-06T01:08:10.094Z,101135.72
2022-10-06T01:10:38.023Z,101139.31
2022-10-06T01:13:07.162Z,101143.75
2022-10-06T01:15:35.133Z,101140.19
2022-10-06T01:18:06.928Z,101133.94
2022-10-06T01:20:38.461Z,101136.63
2022-10-06T01:23:10.209Z,101141.03
2022-10-06T01:25:38.772Z,101145.50
2022-10-06T01:28:09.279Z,101139.22
2022-10-06T01:30:40.678Z,101138.34
2022-10-06T01:33:08.650Z,101145.47
2022-10-06T01:35:36.904Z,101144.56
2022-10-06T01:38:04.992Z,101148.13
2022-10-06T01:40:34.121Z,101149.88
2022-10-06T01:43:02.706Z,101149.84
2022-10-06T01:45:30.842Z,101147.16
2022-10-06T01:47:59.128Z,101150.69
2022-10-06T01:50:27.225Z,101150.63
2022-10-06T01:52:57.408Z,101147.00
2022-10-06T01:55:25.791Z,101146.09
2022-10-06T01:57:55.563Z,101152.28
2022-10-06T02:00:23.979Z,101151.31
2022-10-06T02:02:51.780Z,101153.06
2022-10-06T02:05:21.191Z,101154.84
2022-10-06T02:07:51.961Z,101164.59
2022-10-06T02:10:20.717Z,101171.75
2022-10-06T02:12:51.923Z,101177.97
2022-10-06T02:15:22.516Z,101193.16
2022-10-06T02:17:50.342Z,101212.78
2022-10-06T02:20:18.360Z,101219.94
2022-10-06T02:22:46.140Z,101227.06
2022-10-06T02:25:14.045Z,101232.34
2022-10-06T02:27:42.117Z,101250.16
2022-10-06T02:30:14.150Z,101267.97
2022-10-06T02:32:44.611Z,101267.97
2022-10-06T02:35:13.839Z,101285.91
2022-10-06T02:37:42.591Z,101301.16
2022-10-06T02:40:13.696Z,101297.72
2022-10-06T02:42:41.467Z,101307.69
2022-10-06T02:45:10.841Z,101321.13
2022-10-06T02:47:39.757Z,101315.88
2022-10-06T02:50:09.888Z,101324.84
2022-10-06T02:52:42.691Z,101329.41
2022-10-06T02:55:11.976Z,101345.56
2022-10-06T02:57:40.650Z,101341.19
2022-10-06T03:00:09.537Z,101351.94
2022-10-06T03:02:37.738Z,101349.28
2022-10-06T03:05:06.438Z,101360.94
2022-10-06T03:07:36.437Z,101359.22
2022-10-06T03:10:04.368Z,101366.41
2022-10-06T03:12:33.785Z,101375.31
2022-10-06T03:15:02.017Z,101371.78
2022-10-06T03:17:29.972Z,101379.81
2022-10-06T03:19:58.359Z,101376.25
2022-10-06T03:22:27.015Z,101378.09
2022-10-06T03:24:59.102Z,101398.59
2022-10-06T03:27:27.382Z,101405.75
2022-10-06T03:30:00.849Z,101421.81
2022-10-06T03:32:31.828Z,101430.72
2022-10-06T03:34:59.734Z,101429.88
2022-10-06T03:37:29.867Z,101440.59
2022-10-06T03:40:00.247Z,101432.63
2022-10-06T03:42:28.106Z,101443.31
2022-10-06T03:44:55.898Z,101442.47
2022-10-06T03:47:23.844Z,101447.81
2022-10-06T03:49:51.624Z,101446.06
2022-10-06T03:52:22.406Z,101460.34
2022-10-06T03:54:53.777Z,101467.50
2022-10-06T03:57:23.415Z,101464.84
2022-10-06T03:59:51.605Z,101465.72
2022-10-06T04:02:19.441Z,101475.53
2022-10-06T04:04:47.570Z,101480.88
2022-10-06T04:07:15.347Z,101481.81
2022-10-06T04:09:43.616Z,101496.03
2022-10-06T04:12:13.418Z,101486.28
2022-10-06T04:14:44.649Z,101492.50
2022-10-06T04:17:12.618Z,101506.75
2022-10-06T04:19:41.794Z,101519.25
2022-10-06T04:22:09.673Z,101526.38
2022-10-06T04:24:37.800Z,101537.06
2022-10-06T04:27:23.237Z,101544.19
2022-10-06T04:30:03.999Z,101553.97
2022-10-06T04:32:32.630Z,101554.84
2022-10-06T04:35:00.520Z,101562.84
2022-10-06T04:37:29.031Z,101560.19
2022-10-06T04:39:57.713Z,101554.84
2022-10-06T04:42:26.007Z,101565.56
2022-10-06T04:44:53.858Z,101573.56
2022-10-06T04:47:23.104Z,101573.56
2022-10-06T04:49:51.572Z,101593.13
2022-10-06T04:52:19.558Z,101588.66
2022-10-06T04:54:47.501Z,101597.53
2022-10-06T04:57:15.688Z,101594.00
2022-10-06T04:59:59.507Z,101604.66
2022-10-06T05:02:33.680Z,101602.91
2022-10-06T05:05:01.740Z,101607.31
2022-10-06T05:07:29.566Z,101624.22
2022-10-06T05:09:58.952Z,101622.41
2022-10-06T05:12:30.233Z,101630.44
2022-10-06T05:14:58.961Z,101634.88
2022-10-06T05:17:26.809Z,101646.41
2022-10-06T05:19:56.404Z,101651.72
2022-10-06T05:22:24.297Z,101654.41
2022-10-06T05:24:53.912Z,101659.72
2022-10-06T05:27:21.925Z,101661.47
2022-10-06T05:29:50.625Z,101666.78
2022-10-06T05:32:18.605Z,101668.56
2022-10-06T05:34:46.877Z,101674.78
2022-10-06T05:37:16.106Z,101680.97
2022-10-06T05:39:44.790Z,101688.97
2022-10-06T05:42:12.639Z,101688.94
2022-10-06T05:44:40.532Z,101694.25
2022-10-06T05:47:11.749Z,101697.78
2022-10-06T05:49:39.675Z,101702.19
2022-10-06T05:52:07.610Z,101708.41
2022-10-06T05:54:38.729Z,101722.56
2022-10-06T05:57:08.189Z,101711.03
2022-10-06T05:59:37.094Z,101728.75
2022-10-06T06:02:06.205Z,101725.19
2022-10-06T06:04:39.236Z,101737.63
2022-10-06T06:07:07.275Z,101728.75
2022-10-06T06:09:35.154Z,101742.06
2022-10-06T06:12:06.236Z,101740.28
2022-10-06T06:14:56.954Z,101743.81
2022-10-06T06:17:31.584Z,101750.03
2022-10-06T06:19:59.757Z,101756.25
2022-10-06T06:22:28.263Z,101764.22
2022-10-06T06:24:56.237Z,101772.19
2022-10-06T06:27:26.469Z,101773.97
2022-10-06T06:29:54.770Z,101773.97
2022-10-06T06:32:22.656Z,101789.97
2022-10-06T06:34:52.808Z,101793.53
2022-10-06T06:37:20.858Z,101802.41
2022-10-06T06:39:49.204Z,101802.41
2022-10-06T06:42:17.666Z,101810.41
2022-10-06T06:44:50.418Z,101810.44
2022-10-06T06:47:26.756Z,101815.78
2022-10-06T06:49:55.196Z,101826.47
2022-10-06T06:52:26.086Z,101829.16
2022-10-06T06:54:54.721Z,101825.63
2022-10-06T06:57:22.861Z,101843.41
2022-10-06T06:59:56.022Z,101856.75
2022-10-06T07:02:29.207Z,101853.25
2022-10-06T07:04:57.698Z,101868.41
2022-10-06T07:07:25.526Z,101870.19
2022-10-06T07:09:53.438Z,101877.34
2022-10-06T07:12:25.181Z,101876.47
2022-10-06T07:15:16.323Z,101882.72
2022-10-06T07:18:04.726Z,101886.31
2022-10-06T07:20:50.572Z,101891.72
2022-10-06T07:23:39.632Z,101893.53
2022-10-06T07:26:15.205Z,101901.53
2022-10-06T07:28:43.502Z,101902.44
2022-10-06T07:31:16.290Z,101912.22
2022-10-06T07:33:44.461Z,101901.59
2022-10-06T07:36:12.359Z,101906.94
2022-10-06T07:38:41.547Z,101917.66
2022-10-06T07:41:24.886Z,101923.91
2022-10-06T07:44:08.043Z,101922.13
2022-10-06T07:46:39.694Z,101933.75
2022-10-06T07:49:17.333Z,101933.78
2022-10-06T07:51:45.599Z,101937.38
2022-10-06T07:54:13.746Z,101942.75
2022-10-06T07:57:10.003Z,101943.66
2022-10-06T07:59:38.351Z,101960.56
2022-10-06T08:02:07.666Z,101949.03
2022-10-06T08:04:35.509Z,101966.81
2022-10-06T08:07:03.340Z,101959.72
2022-10-06T08:09:31.732Z,101973.09
2022-10-06T08:12:19.590Z,101981.09
2022-10-06T08:14:48.804Z,101979.31
2022-10-06T08:17:18.026Z,101987.31
2022-10-06T08:19:48.032Z,101991.81
2022-10-06T08:22:16.016Z,101997.13
2022-10-06T08:25:04.629Z,102007.81
2022-10-06T08:27:32.076Z,102010.53
2022-10-06T08:29:59.927Z,102020.38
2022-10-06T08:32:29.623Z,102016.81
2022-10-06T08:34:58.092Z,102028.41
2022-10-06T08:37:27.357Z,102028.44
2022-10-06T08:39:56.180Z,102040.06
2022-10-06T08:42:31.993Z,102041.84
2022-10-06T08:45:03.163Z,102041.88
2022-10-06T08:47:36.070Z,102051.72
2022-10-06T08:50:06.773Z,102048.19
2022-10-06T08:52:51.803Z,102051.78
2022-10-06T08:55:39.298Z,102061.56
2022-10-06T08:58:21.105Z,102055.31
2022-10-06T09:00:49.673Z,102058.00
2022-10-06T09:03:24.036Z,102055.28
2022-10-06T09:05:53.766Z,102062.41
2022-10-06T09:08:42.107Z,102067.75
2022-10-06T09:11:27.016Z,102064.19
2022-10-06T09:14:02.091Z,102061.47
2022-10-06T09:16:35.798Z,102065.88
2022-10-06T09:19:13.783Z,102067.56
2022-10-06T09:21:45.802Z,102070.22
2022-10-06T09:24:17.260Z,102066.59
2022-10-06T09:26:48.035Z,102074.53
2022-10-06T09:29:15.987Z,102086.06
2022-10-06T09:31:48.911Z,102078.88
2022-10-06T09:34:25.835Z,102082.41
2022-10-06T09:37:03.007Z,102080.59
2022-10-06T09:39:36.482Z,102085.03
2022-10-06T09:42:12.223Z,102093.06
2022-10-06T09:44:48.166Z,102101.09
2022-10-06T09:47:31.908Z,102094.88
2022-10-06T09:50:28.752Z,102093.91
2022-10-06T09:53:05.501Z,102103.63
2022-10-06T09:55:43.077Z,102114.28
2022-10-06T09:58:23.494Z,102115.13
2022-10-06T10:00:55.454Z,102122.31
2022-10-06T10:03:26.082Z,102114.22
2022-10-06T10:05:56.102Z,102116.91
2022-10-06T10:08:25.991Z,102112.41
2022-10-06T10:11:33.205Z,102115.94
2022-10-06T10:14:01.267Z,102129.25
2022-10-06T10:16:34.839Z,102122.88
2022-10-06T10:19:05.736Z,102125.50
2022-10-06T10:21:37.157Z,102122.81
2022-10-06T10:24:16.797Z,102134.44
2022-10-06T10:26:56.055Z,102135.41
2022-10-06T10:29:49.402Z,102129.97
2022-10-06T10:32:22.036Z,102133.44
2022-10-06T10:35:06.268Z,102136.94
2022-10-06T10:37:43.311Z,102136.03
2022-10-06T10:40:22.880Z,102132.41
2022-10-06T10:42:57.364Z,102138.72
2022-10-06T10:45:33.994Z,102139.69
2022-10-06T10:48:04.074Z,102149.56
2022-10-06T10:50:38.514Z,102148.63
2022-10-06T10:55:49.100Z,102151.22
2022-10-06T10:58:23.238Z,102161.06
2022-10-06T11:00:59.416Z,102162.00
2022-10-06T11:03:27.319Z,102167.28
2022-10-06T11:06:19.043Z,102159.31
2022-10-06T11:08:56.369Z,102171.78
2022-10-06T11:11:47.465Z,102156.47
2022-10-06T11:14:32.324Z,102152.78
2022-10-06T11:17:05.130Z,102148.19
2022-10-06T11:19:46.143Z,102146.22
2022-10-06T11:22:23.759Z,102148.72
2022-10-06T11:25:05.477Z,102149.47
2022-10-06T11:27:44.685Z,102126.91
2022-10-06T11:30:16.161Z,102138.47
2022-10-06T11:32:51.681Z,102129.25
2022-10-06T11:35:23.086Z,102133.50
2022-10-06T11:38:00.779Z,102141.44
2022-10-06T11:40:41.347Z,102143.97
2022-10-06T11:43:17.087Z,102157.19
2022-10-06T11:45:53.069Z,102148.88
2022-10-06T11:48:31.747Z,102152.22
2022-10-06T11:51:29.687Z,102147.38
2022-10-06T11:53:57.503Z,102145.44
2022-10-06T11:56:39.172Z,102151.34
2022-10-06T11:59:24.455Z,102162.72
2022-10-06T12:02:00.863Z,102161.47
2022-10-06T12:04:29.468Z,102154.13
2022-10-06T12:07:03.308Z,102146.81
2022-10-06T12:09:52.982Z,102147.50
2022-10-06T12:12:44.069Z,102155.63
2022-10-06T12:18:44.423Z,102151.81
2022-10-06T12:21:24.062Z,102152.50
2022-10-06T12:24:06.447Z,102152.19
2022-10-06T12:26:42.418Z,102142.09
2022-10-06T12:29:27.434Z,102141.97
2022-10-06T12:32:05.720Z,102151.53
2022-10-06T12:34:51.204Z,102150.28
2022-10-06T12:37:34.931Z,102154.44
2022-10-06T12:40:40.381Z,102157.09
2022-10-06T12:43:22.977Z,102150.72
2022-10-06T12:45:58.797Z,102152.31
2022-10-06T12:48:32.327Z,102152.06
2022-10-06T12:51:08.291Z,102163.41
2022-10-06T12:53:40.753Z,102156.00
2022-10-06T12:56:28.321Z,102156.84
2022-10-06T12:58:56.457Z,102159.09
2022-10-06T13:01:27.338Z,102166.31
2022-10-06T13:03:55.707Z,102165.44
2022-10-06T13:06:25.561Z,102156.34
2022-10-06T13:09:08.671Z,102153.47
2022-10-06T13:11:36.493Z,102151.72
2022-10-06T13:14:13.827Z,102150.53
2022-10-06T13:16:46.127Z,102154.69
2022-10-06T13:19:23.485Z,102152.88
2022-10-06T13:21:51.328Z,102143.28
2022-10-06T13:24:23.124Z,102164.22
2022-10-06T13:26:51.482Z,102160.50
2022-10-06T13:29:22.384Z,102146.06
2022-10-06T13:31:53.428Z,102152.59
2022-10-06T13:34:28.478Z,102144.59
2022-10-06T13:36:57.248Z,102150.16
2022-10-06T13:39:27.046Z,102151.09
2022-10-06T13:41:59.215Z,102149.94
2022-10-06T13:44:37.928Z,102161.63
2022-10-06T13:47:16.475Z,102153.53
2022-10-06T13:49:50.866Z,102154.38
2022-10-06T13:52:22.750Z,102155.34
2022-10-06T13:54:53.770Z,102158.84
2022-10-06T13:57:39.073Z,102162.38
2022-10-06T14:00:17.375Z,102161.09
2022-10-06T14:02:48.134Z,102166.44
2022-10-06T14:05:29.392Z,102163.81
2022-10-06T14:08:00.214Z,102164.09
2022-10-06T14:10:32.082Z,102167.69
2022-10-06T14:13:01.795Z,102166.25
2022-10-06T14:15:50.030Z,102168.25
2022-10-06T14:18:25.216Z,102152.09
2022-10-06T14:20:53.776Z,102165.00
2022-10-06T14:23:42.630Z,102160.41
2022-10-06T14:26:12.850Z,102164.00
2022-10-06T14:28:41.423Z,102168.44
2022-10-06T14:31:14.714Z,102167.72
2022-10-06T14:33:43.339Z,102164.38
2022-10-06T14:36:17.786Z,102170.06
2022-10-06T14:38:48.128Z,102162.78
2022-10-06T14:41:18.982Z,102160.19
2022-10-06T14:43:48.001Z,102152.97
2022-10-06T14:46:17.228Z,102165.56
2022-10-06T14:48:45.207Z,102153.97
2022-10-06T14:51:13.214Z,102161.38
2022-10-06T14:53:41.458Z,102164.41
2022-10-06T14:56:11.277Z,102157.66
2022-10-06T14:58:40.204Z,102158.81
2022-10-06T15:01:09.118Z,102156.44
2022-10-06T15:03:38.430Z,102168.34
2022-10-06T15:06:26.736Z,102166.72
2022-10-06T15:08:56.135Z,102156.13
2022-10-06T15:11:26.082Z,102163.72
2022-10-06T15:13:54.982Z,102168.78
2022-10-06T15:16:23.393Z,102162.69
2022-10-06T15:18:52.908Z,102161.03
2022-10-06T15:21:21.562Z,102173.84
2022-10-06T15:23:49.402Z,102164.25
2022-10-06T15:26:34.774Z,102156.44
2022-10-06T15:29:03.271Z,102155.72
2022-10-06T15:31:34.905Z,102166.56
2022-10-06T15:34:06.557Z,102164.06
2022-10-06T15:36:36.166Z,102166.13
2022-10-06T15:39:06.743Z,102166.34
2022-10-06T15:41:35.206Z,102162.03
2022-10-06T15:44:03.583Z,102162.22
2022-10-06T15:46:34.444Z,102161.47
2022-10-06T15:49:05.774Z,102154.50
2022-10-06T15:51:37.228Z,102163.63
2022-10-06T15:54:05.653Z,102166.47
2022-10-06T15:56:33.949Z,102175.56
2022-10-06T15:59:02.519Z,102173.88
2022-10-06T16:01:43.778Z,102167.69
2022-10-06T16:04:25.566Z,102166.88
2022-10-06T16:06:56.084Z,102166.09
2022-10-06T16:09:25.996Z,102156.34
2022-10-06T16:11:54.074Z,102166.28
2022-10-06T16:14:22.173Z,102168.22
2022-10-06T16:16:50.714Z,102168.34
2022-10-06T16:19:20.833Z,102174.66
2022-10-06T16:21:49.867Z,102176.56
2022-10-06T16:24:18.223Z,102178.44
2022-10-06T16:26:47.224Z,102186.59
2022-10-06T16:29:15.134Z,102184.88
2022-10-06T16:31:43.757Z,102191.25
2022-10-06T16:34:12.192Z,102183.25
2022-10-06T16:36:42.201Z,102185.13
2022-10-06T16:39:17.603Z,102187.84
2022-10-06T16:41:45.783Z,102187.06
2022-10-06T16:44:14.023Z,102189.72
2022-10-06T16:46:42.111Z,102190.69
2022-10-06T16:49:10.368Z,102195.22
2022-10-06T16:51:40.067Z,102197.06
2022-10-06T16:54:11.039Z,102194.41
2022-10-06T16:56:40.458Z,102203.38
2022-10-06T16:59:13.636Z,102209.63
2022-10-06T17:01:41.546Z,102206.09
2022-10-06T17:04:11.810Z,102202.53
2022-10-06T17:06:41.736Z,102208.81
2022-10-06T17:09:14.142Z,102211.50
2022-10-06T17:11:43.221Z,102210.59
2022-10-06T17:14:11.586Z,102215.94
2022-10-06T17:16:41.756Z,102215.03
2022-10-06T17:19:12.270Z,102213.22
2022-10-06T17:21:46.350Z,102214.13
2022-10-06T17:24:19.164Z,102213.22
2022-10-06T17:26:49.796Z,102213.19
2022-10-06T17:29:21.626Z,102215.81
2022-10-06T17:31:53.429Z,102212.19
2022-10-06T17:34:23.619Z,102209.50
2022-10-06T17:36:53.680Z,102219.19
2022-10-06T17:39:24.707Z,102213.78
2022-10-06T17:41:54.077Z,102212.81
2022-10-06T17:44:24.134Z,102223.44
2022-10-06T17:46:53.910Z,102221.56
2022-10-06T17:49:23.929Z,102226.84
2022-10-06T17:51:53.547Z,102231.19
2022-10-06T17:54:24.694Z,102232.00
2022-10-06T17:56:54.868Z,102231.03
2022-10-06T17:59:25.179Z,102239.84
2022-10-06T18:01:56.502Z,102227.28
2022-10-06T18:04:24.881Z,102241.31
2022-10-06T18:06:54.298Z,102237.66
2022-10-06T18:09:23.903Z,102230.44
2022-10-06T18:11:55.968Z,102239.25
2022-10-06T18:14:25.635Z,102235.56
2022-10-06T18:16:56.596Z,102232.78
2022-10-06T18:19:26.732Z,102235.34
2022-10-06T18:21:56.605Z,102232.63
2022-10-06T18:24:28.090Z,102229.88
2022-10-06T18:26:57.272Z,102231.56
2022-10-06T18:29:28.011Z,102232.41
2022-10-06T18:32:05.059Z,102218.06
2022-10-06T18:37:31.805Z,102223.22
2022-10-06T18:40:02.465Z,102220.47
2022-10-06T18:42:30.310Z,102222.16
2022-10-06T18:45:15.782Z,102227.34
2022-10-06T18:48:01.233Z,102227.16
2022-10-06T18:50:29.013Z,102232.41
2022-10-06T18:52:57.303Z,102221.66
2022-10-06T18:55:27.930Z,102234.88
2022-10-06T18:57:55.729Z,102233.91
2022-10-06T19:00:26.098Z,102233.88
2022-10-06T19:02:56.877Z,102233.81
2022-10-06T19:05:25.169Z,102244.31
2022-10-06T19:07:54.440Z,102249.31
2022-10-06T19:10:22.736Z,102248.22
2022-10-06T19:12:52.051Z,102256.03
2022-10-06T19:15:21.276Z,102251.47
2022-10-06T19:17:49.539Z,102254.03
2022-10-06T19:20:18.229Z,102257.50
2022-10-06T19:22:47.441Z,102252.13
2022-10-06T19:25:18.672Z,102254.72
2022-10-06T19:27:47.003Z,102251.06
2022-10-06T19:30:16.397Z,102258.03
2022-10-06T19:32:44.271Z,102259.72
2022-10-06T19:35:12.296Z,102263.94
2022-10-06T19:37:40.710Z,102269.09
2022-10-06T19:40:11.342Z,102274.28
2022-10-06T19:42:47.838Z,102267.94
2022-10-06T19:45:20.684Z,102272.28
2022-10-06T19:47:48.566Z,102271.28
2022-10-06T19:50:17.670Z,102265.88
2022-10-06T19:52:46.246Z,102276.41
2022-10-06T19:55:14.710Z,102271.88
2022-10-06T19:57:43.074Z,102270.91
2022-10-06T20:00:12.624Z,102270.84
2022-10-06T20:02:43.829Z,102278.69
2022-10-06T20:05:13.687Z,102269.75
2022-10-06T20:07:42.623Z,102280.25
2022-10-06T20:10:11.987Z,102282.84
2022-10-06T20:12:41.363Z,102278.34
2022-10-06T20:15:10.812Z,102272.97
2022-10-06T20:17:39.305Z,102275.53
2022-10-06T20:20:09.377Z,102277.25
2022-10-06T20:22:37.224Z,102282.47
2022-10-06T20:25:07.102Z,102277.13
2022-10-06T20:27:35.181Z,102276.22
2022-10-06T20:30:03.087Z,102272.63
2022-10-06T20:32:30.909Z,102276.97
2022-10-06T20:34:58.958Z,102273.34
2022-10-06T20:37:28.125Z,102269.66
2022-10-06T20:40:13.238Z,102277.53
2022-10-06T20:42:44.784Z,102279.22
2022-10-06T20:45:13.053Z,102273.78
2022-10-06T20:47:41.249Z,102270.22
2022-10-06T20:50:10.427Z,102270.13
2022-10-06T20:52:39.784Z,102271.81
2022-10-06T20:55:08.839Z,102279.66
2022-10-06T20:57:36.942Z,102284.03
2022-10-06T21:00:05.394Z,102276.03
2022-10-06T21:02:34.055Z,102275.91
2022-10-06T21:05:02.358Z,102268.69
2022-10-06T21:07:30.314Z,102269.44
2022-10-06T21:09:59.707Z,102279.13
2022-10-06T21:12:28.555Z,102271.75
2022-10-06T21:14:57.012Z,102280.47
2022-10-06T21:17:24.964Z,102280.31
2022-10-06T21:19:52.870Z,102280.22
2022-10-06T21:22:20.779Z,102285.47
2022-10-06T21:24:48.688Z,102283.72
2022-10-06T21:27:18.482Z,102277.47
2022-10-06T21:29:46.414Z,102269.44
2022-10-06T21:32:14.373Z,102273.91
2022-10-06T21:34:42.273Z,102272.03
2022-10-06T21:37:10.620Z,102263.09
2022-10-06T21:39:38.536Z,102265.72
2022-10-06T21:42:07.058Z,102260.19
2022-10-06T21:44:36.392Z,102257.50
2022-10-06T21:47:04.484Z,102245.06
2022-10-06T21:49:32.466Z,102263.59
2022-10-06T21:52:04.760Z,102252.13
2022-10-06T21:54:32.773Z,102252.94
2022-10-06T21:57:00.745Z,102255.53
2022-10-06T21:59:28.698Z,102256.34
2022-10-06T22:01:58.108Z,102249.25
2022-10-06T22:04:26.149Z,102246.56
2022-10-06T22:06:54.318Z,102258.84
2022-10-06T22:09:22.287Z,102253.34
2022-10-06T22:11:50.723Z,102254.09
2022-10-06T22:14:20.538Z,102247.75
2022-10-06T22:16:48.549Z,102245.88
2022-10-06T22:19:18.484Z,102253.66
2022-10-06T22:21:48.212Z,102243.75
2022-10-06T22:24:17.713Z,102244.47
2022-10-06T22:26:46.256Z,102235.50
2022-10-06T22:29:16.285Z,102242.44
2022-10-06T22:31:51.677Z,102237.88
2022-10-06T22:34:21.827Z,102246.59
2022-10-06T22:36:49.819Z,102235.91
2022-10-06T22:39:18.188Z,102241.00
2022-10-06T22:41:46.616Z,102239.00
2022-10-06T22:44:14.609Z,102231.72
2022-10-06T22:46:42.636Z,102236.84
2022-10-06T22:49:10.920Z,102235.81
2022-10-06T22:51:40.432Z,102226.88
2022-10-06T22:54:08.409Z,102236.47
2022-10-06T22:56:36.584Z,102232.00
2022-10-06T22:59:04.896Z,102227.41
2022-10-06T23:01:32.878Z,102222.94
2022-10-06T23:04:00.917Z,102224.63
2022-10-06T23:06:31.508Z,102215.69
2022-10-06T23:09:01.239Z,102218.25
2022-10-06T23:11:29.393Z,102216.34
2022-10-06T23:13:57.358Z,102213.59
2022-10-06T23:16:25.381Z,102216.94
2022-10-06T23:18:53.447Z,102206.25
2022-10-06T23:21:24.310Z,102202.53
2022-10-06T23:23:54.503Z,102209.31
2022-10-06T23:26:24.547Z,102209.28
2022-10-06T23:28:54.229Z,102206.53
2022-10-06T23:31:22.591Z,102201.97
2022-10-06T23:33:50.992Z,102201.06
2022-10-06T23:36:19.837Z,102202.66
2022-10-06T23:38:48.658Z,102204.25
2022-10-06T23:41:17.046Z,102210.47
2022-10-06T23:43:46.473Z,102209.56
2022-10-06T23:46:15.274Z,102207.81
2022-10-06T23:48:43.714Z,102213.91
2022-10-06T23:51:14.097Z,102205.06
2022-10-06T23:53:43.127Z,102206.75
2022-10-06T23:56:11.581Z,102209.34
2022-10-06T23:58:41.755Z,102216.44
